createdAt,value
2018-04-02T00:00:52.626Z,20.34
2018-04-02T00:01:52.614Z,20.34
2018-04-02T00:02:52.644Z,20.31
2018-04-02T00:03:53.533Z,20.35
2018-04-02T00:04:52.710Z,20.34
2018-04-02T00:05:52.727Z,20.26
2018-04-02T00:06:52.757Z,20.34
2018-04-02T00:07:52.790Z,20.27
2018-04-02T00:08:52.866Z,20.26
2018-04-02T00:09:53.110Z,20.30
2018-04-02T00:10:52.877Z,20.31
2018-04-02T00:11:52.904Z,20.34
2018-04-02T00:12:52.936Z,20.31
2018-04-02T00:13:52.983Z,20.33
2018-04-02T00:14:53.010Z,20.31
2018-04-02T00:15:53.044Z,20.33
2018-04-02T00:16:53.327Z,20.34
2018-04-02T00:17:53.087Z,20.30
2018-04-02T00:18:53.128Z,20.33
2018-04-02T00:19:53.167Z,20.31
2018-04-02T00:20:53.209Z,20.38
2018-04-02T00:21:53.212Z,20.30
2018-04-02T00:22:53.260Z,20.35
2018-04-02T00:23:53.529Z,20.26
2018-04-02T00:24:53.316Z,20.35
2018-04-02T00:25:53.357Z,20.30
2018-04-02T00:26:53.350Z,20.33
2018-04-02T00:27:53.434Z,20.31
2018-04-02T00:28:53.415Z,20.35
2018-04-02T00:29:53.447Z,20.27
2018-04-02T00:30:53.730Z,20.33
2018-04-02T00:31:53.506Z,20.34
2018-04-02T00:32:53.543Z,20.35
2018-04-02T00:33:53.568Z,20.33
2018-04-02T00:34:53.591Z,20.38
2018-04-02T00:35:53.635Z,20.33
2018-04-02T00:36:53.654Z,20.30
2018-04-02T00:37:54.014Z,20.35
2018-04-02T00:38:53.710Z,20.26
2018-04-02T00:39:53.737Z,20.26
2018-04-02T00:40:53.850Z,20.38
2018-04-02T00:41:53.802Z,20.34
2018-04-02T00:42:53.894Z,20.31
2018-04-02T00:43:53.894Z,20.30
2018-04-02T00:44:54.196Z,20.37
2018-04-02T00:45:53.953Z,20.33
2018-04-02T00:46:53.952Z,20.30
2018-04-02T00:47:53.982Z,20.33
2018-04-02T00:48:54.110Z,20.27
2018-04-02T00:49:54.054Z,20.34
2018-04-02T00:50:54.069Z,20.33
2018-04-02T00:51:54.408Z,20.31
2018-04-02T00:52:54.199Z,20.33
2018-04-02T00:53:54.223Z,20.38
2018-04-02T00:54:54.197Z,20.37
2018-04-02T00:55:54.216Z,20.33
2018-04-02T00:56:54.257Z,20.25
2018-04-02T00:57:54.317Z,20.33
2018-04-02T00:58:54.557Z,20.34
2018-04-02T00:59:54.375Z,20.33
2018-04-02T01:00:54.368Z,20.30
2018-04-02T01:01:54.397Z,20.35
2018-04-02T01:02:54.433Z,20.31
2018-04-02T01:03:54.493Z,20.37
2018-04-02T01:04:54.517Z,20.26
2018-04-02T01:05:54.780Z,20.31
2018-04-02T01:06:54.664Z,20.31
2018-04-02T01:07:54.583Z,20.33
2018-04-02T01:08:54.608Z,20.31
2018-04-02T01:09:54.644Z,20.31
2018-04-02T01:10:54.663Z,20.30
2018-04-02T01:11:54.692Z,20.33
2018-04-02T01:12:54.972Z,20.30
2018-04-02T01:13:54.756Z,20.33
2018-04-02T01:14:54.784Z,20.33
2018-04-02T01:15:54.822Z,20.33
2018-04-02T01:16:54.852Z,20.33
2018-04-02T01:17:54.921Z,20.33
2018-04-02T01:18:54.967Z,20.33
2018-04-02T01:19:55.202Z,20.30
2018-04-02T01:20:55.059Z,20.34
2018-04-02T01:21:54.997Z,20.30
2018-04-02T01:22:55.020Z,20.31
2018-04-02T01:23:55.051Z,20.34
2018-04-02T01:24:55.190Z,20.26
2018-04-02T01:25:55.109Z,20.30
2018-04-02T01:26:55.526Z,20.30
2018-04-02T01:27:55.232Z,20.25
2018-04-02T01:28:55.205Z,20.22
2018-04-02T01:29:55.263Z,20.30
2018-04-02T01:30:55.308Z,20.26
2018-04-02T01:31:55.291Z,20.30
2018-04-02T01:32:55.663Z,20.23
2018-04-02T01:33:55.356Z,20.31
2018-04-02T01:34:55.378Z,20.26
2018-04-02T01:35:55.452Z,20.19
2018-04-02T01:36:55.436Z,20.30
2018-04-02T01:37:55.477Z,20.22
2018-04-02T01:38:55.744Z,20.20
2018-04-02T01:39:55.528Z,20.22
2018-04-02T01:40:55.556Z,20.20
2018-04-02T01:41:55.621Z,20.22
2018-04-02T01:42:55.729Z,20.23
2018-04-02T01:43:55.661Z,20.16
2018-04-02T01:44:55.930Z,20.30
2018-04-02T01:45:55.721Z,20.25
2018-04-02T01:46:55.746Z,20.22
2018-04-02T01:47:55.787Z,20.23
2018-04-02T01:48:55.803Z,20.31
2018-04-02T01:49:55.827Z,20.22
2018-04-02T01:50:56.112Z,20.26
2018-04-02T01:51:55.886Z,20.20
2018-04-02T01:52:55.923Z,20.22
2018-04-02T01:53:55.946Z,20.26
2018-04-02T01:54:55.974Z,20.22
2018-04-02T01:55:56.065Z,20.22
2018-04-02T01:56:56.404Z,20.20
2018-04-02T01:57:56.068Z,20.19
2018-04-02T01:58:56.095Z,20.26
2018-04-02T01:59:56.138Z,20.22
2018-04-02T02:00:56.161Z,20.30
2018-04-02T02:01:56.201Z,20.20
2018-04-02T02:02:56.538Z,20.20
2018-04-02T02:03:56.263Z,20.23
2018-04-02T02:04:56.284Z,20.19
2018-04-02T02:05:56.299Z,20.19
2018-04-02T02:06:56.447Z,20.15
2018-04-02T02:07:56.370Z,20.23
2018-04-02T02:08:56.639Z,20.22
2018-04-02T02:09:56.418Z,20.19
2018-04-02T02:10:56.453Z,20.30
2018-04-02T02:11:56.488Z,20.20
2018-04-02T02:12:56.534Z,20.16
2018-04-02T02:13:56.563Z,20.16
2018-04-02T02:14:56.815Z,20.20
2018-04-02T02:15:56.611Z,20.25
2018-04-02T02:16:56.636Z,20.20
2018-04-02T02:17:56.677Z,20.25
2018-04-02T02:18:56.695Z,20.22
2018-04-02T02:19:56.717Z,20.23
2018-04-02T02:20:57.104Z,20.26
2018-04-02T02:21:56.776Z,20.23
2018-04-02T02:22:56.973Z,20.16
2018-04-02T02:23:56.886Z,20.20
2018-04-02T02:24:56.870Z,20.19
2018-04-02T02:25:56.932Z,20.20
2018-04-02T02:26:57.179Z,20.19
2018-04-02T02:27:57.009Z,20.23
2018-04-02T02:28:56.982Z,20.15
2018-04-02T02:29:57.031Z,20.22
2018-04-02T02:30:57.154Z,20.13
2018-04-02T02:31:57.130Z,20.16
2018-04-02T02:32:57.361Z,20.17
2018-04-02T02:33:57.138Z,20.19
2018-04-02T02:34:57.190Z,20.20
2018-04-02T02:35:57.237Z,20.20
2018-04-02T02:36:57.223Z,20.19
2018-04-02T02:37:57.297Z,20.13
2018-04-02T02:38:57.587Z,20.10
2018-04-02T02:39:57.322Z,20.13
2018-04-02T02:40:57.356Z,20.13
2018-04-02T02:41:57.370Z,20.16
2018-04-02T02:42:57.428Z,20.20
2018-04-02T02:43:57.444Z,20.15
2018-04-02T02:44:57.467Z,20.20
2018-04-02T02:45:57.788Z,20.13
2018-04-02T02:46:57.542Z,20.16
2018-04-02T02:47:57.561Z,20.15
2018-04-02T02:48:57.591Z,20.19
2018-04-02T02:49:57.610Z,20.16
2018-04-02T02:50:57.681Z,20.16
2018-04-02T02:51:57.732Z,20.22
2018-04-02T02:52:57.953Z,20.19
2018-04-02T02:53:57.767Z,20.17
2018-04-02T02:54:57.762Z,20.17
2018-04-02T02:55:57.807Z,20.15
2018-04-02T02:56:57.859Z,20.20
2018-04-02T02:57:57.912Z,20.17
2018-04-02T02:58:57.880Z,20.27
2018-04-02T02:59:58.215Z,20.16
2018-04-02T03:00:57.936Z,20.17
2018-04-02T03:01:57.991Z,20.15
2018-04-02T03:02:58.379Z,20.22
2018-04-02T03:03:58.022Z,20.16
2018-04-02T03:04:58.054Z,20.16
2018-04-02T03:05:58.086Z,20.19
2018-04-02T03:06:58.362Z,20.16
2018-04-02T03:07:58.146Z,20.16
2018-04-02T03:08:58.175Z,20.17
2018-04-02T03:09:58.234Z,20.13
2018-04-02T03:10:58.250Z,20.20
2018-04-02T03:11:58.274Z,20.19
2018-04-02T03:12:58.291Z,20.16
2018-04-02T03:13:58.621Z,20.13
2018-04-02T03:14:58.349Z,20.22
2018-04-02T03:15:58.549Z,20.15
2018-04-02T03:16:58.413Z,20.17
2018-04-02T03:17:58.447Z,20.19
2018-04-02T03:18:58.542Z,20.13
2018-04-02T03:19:58.508Z,20.19
2018-04-02T03:20:58.808Z,20.26
2018-04-02T03:21:58.603Z,20.23
2018-04-02T03:22:58.692Z,20.16
2018-04-02T03:23:58.659Z,20.19
2018-04-02T03:24:58.647Z,20.16
2018-04-02T03:25:58.679Z,20.15
2018-04-02T03:27:59.069Z,20.20
2018-04-02T03:28:58.797Z,20.19
2018-04-02T03:29:58.796Z,20.19
2018-04-02T03:30:58.825Z,20.17
2018-04-02T03:31:58.871Z,20.16
2018-04-02T03:32:58.888Z,20.13
2018-04-02T03:33:58.919Z,20.13
2018-04-02T03:34:59.251Z,20.17
2018-04-02T03:35:58.998Z,20.16
2018-04-02T03:36:59.000Z,20.15
2018-04-02T03:37:59.058Z,20.17
2018-04-02T03:38:59.100Z,20.15
2018-04-02T03:39:59.090Z,20.17
2018-04-02T03:40:59.123Z,20.13
2018-04-02T03:41:59.409Z,20.17
2018-04-02T03:42:59.188Z,20.16
2018-04-02T03:43:59.218Z,20.16
2018-04-02T03:44:59.242Z,20.13
2018-04-02T03:45:59.268Z,20.15
2018-04-02T03:46:59.319Z,20.17
2018-04-02T03:47:59.334Z,20.15
2018-04-02T03:48:59.697Z,20.13
2018-04-02T03:49:59.487Z,20.15
2018-04-02T03:50:59.430Z,20.13
2018-04-02T03:51:59.452Z,20.13
2018-04-02T03:52:59.478Z,20.12
2018-04-02T03:53:59.505Z,20.12
2018-04-02T03:54:59.538Z,20.19
2018-04-02T03:55:59.818Z,20.16
2018-04-02T03:56:59.594Z,20.17
2018-04-02T03:57:59.636Z,20.16
2018-04-02T03:58:59.653Z,20.08
2018-04-02T03:59:59.712Z,20.19
2018-04-02T04:00:59.774Z,20.15
2018-04-02T04:01:59.993Z,20.15
2018-04-02T04:02:59.784Z,20.08
2018-04-02T04:03:59.805Z,20.13
2018-04-02T04:04:59.844Z,20.13
2018-04-02T04:05:59.865Z,20.12
2018-04-02T04:06:59.888Z,20.15
2018-04-02T04:08:00.176Z,20.12
2018-04-02T04:08:59.982Z,20.16
2018-04-02T04:09:59.984Z,20.19
2018-04-02T04:11:00.027Z,20.15
2018-04-02T04:12:00.043Z,20.15
2018-04-02T04:13:00.079Z,20.19
2018-04-02T04:14:00.410Z,20.08
2018-04-02T04:15:00.138Z,20.17
2018-04-02T04:16:00.189Z,20.08
2018-04-02T04:17:00.199Z,20.02
2018-04-02T04:18:00.219Z,20.12
2018-04-02T04:19:00.254Z,20.04
2018-04-02T04:20:00.578Z,20.12
2018-04-02T04:21:00.353Z,20.15
2018-04-02T04:22:00.334Z,20.16
2018-04-02T04:23:00.366Z,20.10
2018-04-02T04:24:00.400Z,20.08
2018-04-02T04:25:00.450Z,20.10
2018-04-02T04:26:00.706Z,20.01
2018-04-02T04:27:00.496Z,20.05
2018-04-02T04:28:00.514Z,20.17
2018-04-02T04:29:00.545Z,20.02
2018-04-02T04:30:00.571Z,20.01
2018-04-02T04:31:00.803Z,20.12
2018-04-02T04:32:00.939Z,20.01
2018-04-02T04:33:00.700Z,20.05
2018-04-02T04:34:00.701Z,20.10
2018-04-02T04:35:00.750Z,20.00
2018-04-02T04:36:00.750Z,20.07
2018-04-02T04:37:00.786Z,20.04
2018-04-02T04:38:00.820Z,20.08
2018-04-02T04:39:00.863Z,20.01
2018-04-02T04:40:00.910Z,20.16
2018-04-02T04:41:00.915Z,20.07
2018-04-02T04:42:00.929Z,20.07
2018-04-02T04:43:00.977Z,20.04
2018-04-02T04:44:01.294Z,20.12
2018-04-02T04:45:01.018Z,20.12
2018-04-02T04:46:01.047Z,20.04
2018-04-02T04:47:01.075Z,20.02
2018-04-02T04:48:01.129Z,20.02
2018-04-02T04:49:01.165Z,20.02
2018-04-02T04:50:01.477Z,20.12
2018-04-02T04:51:01.280Z,20.16
2018-04-02T04:52:01.224Z,20.05
2018-04-02T04:53:01.261Z,20.12
2018-04-02T04:54:01.292Z,20.00
2018-04-02T04:55:01.327Z,20.08
2018-04-02T04:56:01.659Z,20.15
2018-04-02T04:57:01.447Z,20.04
2018-04-02T04:58:01.457Z,20.07
2018-04-02T04:59:01.464Z,20.05
2018-04-02T05:00:01.505Z,20.05
2018-04-02T05:01:01.494Z,20.01
2018-04-02T05:02:01.771Z,20.00
2018-04-02T05:03:01.666Z,20.15
2018-04-02T05:04:01.579Z,20.05
2018-04-02T05:05:01.621Z,20.05
2018-04-02T05:06:01.694Z,20.05
2018-04-02T05:07:01.728Z,20.10
2018-04-02T05:08:01.997Z,20.07
2018-04-02T05:09:01.737Z,20.07
2018-04-02T05:10:01.807Z,20.02
2018-04-02T05:11:01.787Z,20.05
2018-04-02T05:12:01.818Z,20.10
2018-04-02T05:13:01.847Z,20.12
2018-04-02T05:14:01.928Z,20.04
2018-04-02T05:15:02.156Z,20.05
2018-04-02T05:16:01.949Z,20.08
2018-04-02T05:17:02.051Z,20.05
2018-04-02T05:18:01.999Z,20.05
2018-04-02T05:19:02.028Z,20.13
2018-04-02T05:20:02.058Z,20.04
2018-04-02T05:21:02.088Z,20.04
2018-04-02T05:22:02.367Z,20.00
2018-04-02T05:23:02.143Z,20.05
2018-04-02T05:24:02.234Z,20.12
2018-04-02T05:25:02.224Z,20.15
2018-04-02T05:26:02.232Z,20.00
2018-04-02T05:27:02.316Z,20.02
2018-04-02T05:28:02.333Z,20.08
2018-04-02T05:29:02.642Z,20.15
2018-04-02T05:30:02.415Z,20.15
2018-04-02T05:31:02.438Z,20.13
2018-04-02T05:32:02.432Z,20.08
2018-04-02T05:33:02.512Z,20.13
2018-04-02T05:34:02.483Z,20.10
2018-04-02T05:35:02.496Z,20.02
2018-04-02T05:36:02.871Z,20.10
2018-04-02T05:37:02.573Z,20.10
2018-04-02T05:38:02.603Z,20.15
2018-04-02T05:39:02.618Z,20.19
2018-04-02T05:40:02.644Z,20.10
2018-04-02T05:41:02.699Z,20.16
2018-04-02T05:42:02.772Z,20.10
2018-04-02T05:43:03.019Z,20.12
2018-04-02T05:44:02.797Z,20.15
2018-04-02T05:45:02.810Z,20.19
2018-04-02T05:46:02.852Z,20.17
2018-04-02T05:47:02.855Z,20.17
2018-04-02T05:48:02.923Z,20.13
2018-04-02T05:49:02.911Z,20.15
2018-04-02T05:50:03.293Z,20.17
2018-04-02T05:51:03.153Z,20.19
2018-04-02T05:52:03.019Z,20.13
2018-04-02T05:53:03.040Z,20.19
2018-04-02T05:54:03.095Z,20.12
2018-04-02T05:55:03.108Z,20.16
2018-04-02T05:56:03.154Z,20.13
2018-04-02T05:57:03.460Z,20.16
2018-04-02T05:58:03.188Z,20.13
2018-04-02T05:59:03.222Z,20.19
2018-04-02T06:00:03.243Z,20.17
2018-04-02T06:01:03.282Z,20.20
2018-04-02T06:02:03.298Z,20.16
2018-04-02T06:03:03.329Z,20.13
2018-04-02T06:04:03.674Z,20.16
2018-04-02T06:05:03.417Z,20.15
2018-04-02T06:06:03.418Z,20.17
2018-04-02T06:07:03.464Z,20.12
2018-04-02T06:08:03.502Z,20.20
2018-04-02T06:09:03.521Z,20.12
2018-04-02T06:10:03.539Z,20.17
2018-04-02T06:11:03.876Z,20.15
2018-04-02T06:12:03.615Z,20.17
2018-04-02T06:13:03.661Z,20.17
2018-04-02T06:14:03.657Z,20.30
2018-04-02T06:15:03.685Z,20.19
2018-04-02T06:16:03.720Z,20.20
2018-04-02T06:17:03.807Z,20.25
2018-04-02T06:18:04.139Z,20.25
2018-04-02T06:19:03.898Z,20.22
2018-04-02T06:20:03.845Z,20.20
2018-04-02T06:21:03.915Z,20.22
2018-04-02T06:22:03.916Z,20.22
2018-04-02T06:23:03.946Z,20.31
2018-04-02T06:24:03.961Z,20.30
2018-04-02T06:25:04.233Z,20.26
2018-04-02T06:26:04.015Z,20.25
2018-04-02T06:27:04.087Z,20.34
2018-04-02T06:28:04.091Z,20.31
2018-04-02T06:29:04.104Z,20.31
2018-04-02T06:30:04.132Z,20.27
2018-04-02T06:31:04.420Z,20.31
2018-04-02T06:32:04.190Z,20.34
2018-04-02T06:33:04.223Z,20.30
2018-04-02T06:34:04.277Z,20.31
2018-04-02T06:35:04.288Z,20.31
2018-04-02T06:36:04.391Z,20.31
2018-04-02T06:37:04.655Z,20.38
2018-04-02T06:38:04.430Z,20.38
2018-04-02T06:39:04.410Z,20.38
2018-04-02T06:40:04.436Z,20.38
2018-04-02T06:41:04.461Z,20.40
2018-04-02T06:42:04.507Z,20.38
2018-04-02T06:43:04.884Z,20.42
2018-04-02T06:44:04.550Z,20.40
2018-04-02T06:45:04.648Z,20.48
2018-04-02T06:46:04.713Z,20.42
2018-04-02T06:47:04.708Z,20.42
2018-04-02T06:48:04.691Z,20.42
2018-04-02T06:49:04.952Z,20.42
2018-04-02T06:50:04.746Z,20.46
2018-04-02T06:51:04.769Z,20.46
2018-04-02T06:52:04.801Z,20.48
2018-04-02T06:53:04.854Z,20.51
2018-04-02T06:54:04.887Z,20.46
2018-04-02T06:55:05.190Z,20.41
2018-04-02T06:56:04.946Z,20.40
2018-04-02T06:57:04.966Z,20.44
2018-04-02T06:58:05.053Z,20.44
2018-04-02T06:59:05.033Z,20.46
2018-04-02T07:00:05.111Z,20.57
2018-04-02T07:01:05.137Z,20.56
2018-04-02T07:02:05.094Z,20.60
2018-04-02T07:03:05.122Z,20.61
2018-04-02T07:04:05.163Z,20.53
2018-04-02T07:05:05.182Z,20.56
2018-04-02T07:06:05.268Z,20.61
2018-04-02T07:07:05.508Z,20.63
2018-04-02T07:08:05.306Z,20.58
2018-04-02T07:09:05.307Z,20.56
2018-04-02T07:10:05.336Z,20.53
2018-04-02T07:11:05.370Z,20.56
2018-04-02T07:12:05.412Z,20.60
2018-04-02T07:13:05.731Z,20.57
2018-04-02T07:14:05.463Z,20.64
2018-04-02T07:15:05.487Z,20.57
2018-04-02T07:16:05.531Z,20.64
2018-04-02T07:17:05.548Z,20.57
2018-04-02T07:18:05.576Z,20.60
2018-04-02T07:19:06.005Z,20.61
2018-04-02T07:20:05.668Z,20.58
2018-04-02T07:21:05.662Z,20.72
2018-04-02T07:22:05.697Z,20.63
2018-04-02T07:23:05.742Z,20.73
2018-04-02T07:24:05.756Z,20.64
2018-04-02T07:25:06.034Z,20.60
2018-04-02T07:26:05.819Z,20.75
2018-04-02T07:27:05.854Z,20.73
2018-04-02T07:28:05.874Z,20.64
2018-04-02T07:29:05.911Z,20.76
2018-04-02T07:30:05.956Z,20.72
2018-04-02T07:31:06.267Z,20.63
2018-04-02T07:32:06.001Z,20.66
2018-04-02T07:33:06.105Z,20.68
2018-04-02T07:34:06.058Z,20.71
2018-04-02T07:35:06.096Z,20.71
2018-04-02T07:36:06.124Z,20.71
2018-04-02T07:37:06.410Z,20.76
2018-04-02T07:38:06.188Z,20.71
2018-04-02T07:39:06.209Z,20.76
2018-04-02T07:40:06.248Z,20.82
2018-04-02T07:41:06.274Z,20.85
2018-04-02T07:42:06.306Z,20.83
2018-04-02T07:43:06.634Z,20.78
2018-04-02T07:44:06.363Z,20.83
2018-04-02T07:45:06.394Z,20.83
2018-04-02T07:46:06.424Z,20.88
2018-04-02T07:47:06.453Z,20.85
2018-04-02T07:48:06.485Z,20.83
2018-04-02T07:49:06.511Z,20.83
2018-04-02T07:50:06.865Z,20.87
2018-04-02T07:51:06.574Z,20.90
2018-04-02T07:52:06.603Z,20.85
2018-04-02T07:53:06.634Z,20.90
2018-04-02T07:54:06.685Z,20.90
2018-04-02T07:55:06.701Z,20.91
2018-04-02T07:56:06.764Z,20.91
2018-04-02T07:57:07.065Z,20.93
2018-04-02T07:58:06.795Z,20.94
2018-04-02T07:59:06.821Z,20.96
2018-04-02T08:00:06.895Z,20.96
2018-04-02T08:01:06.880Z,21.01
2018-04-02T08:02:06.909Z,20.85
2018-04-02T08:03:06.942Z,20.96
2018-04-02T08:04:07.276Z,20.88
2018-04-02T08:05:07.002Z,20.93
2018-04-02T08:06:07.078Z,20.90
2018-04-02T08:07:07.086Z,20.97
2018-04-02T08:08:07.095Z,20.96
2018-04-02T08:09:07.129Z,20.97
2018-04-02T08:10:07.159Z,20.97
2018-04-02T08:11:07.433Z,20.96
2018-04-02T08:12:07.271Z,21.00
2018-04-02T08:13:07.260Z,21.05
2018-04-02T08:14:07.290Z,21.03
2018-04-02T08:15:07.307Z,21.09
2018-04-02T08:16:07.414Z,21.03
2018-04-02T08:17:07.369Z,21.08
2018-04-02T08:18:07.709Z,21.06
2018-04-02T08:19:07.430Z,21.11
2018-04-02T08:20:07.478Z,21.05
2018-04-02T08:21:07.494Z,21.08
2018-04-02T08:22:07.549Z,21.03
2018-04-02T08:23:07.553Z,21.08
2018-04-02T08:24:07.592Z,21.03
2018-04-02T08:25:07.868Z,21.11
2018-04-02T08:26:07.645Z,21.12
2018-04-02T08:27:07.679Z,21.13
2018-04-02T08:28:07.713Z,21.09
2018-04-02T08:29:07.773Z,21.15
2018-04-02T08:30:07.770Z,21.11
2018-04-02T08:31:07.804Z,21.21
2018-04-02T08:32:08.086Z,21.18
2018-04-02T08:33:07.865Z,21.19
2018-04-02T08:34:07.890Z,21.22
2018-04-02T08:35:07.922Z,21.22
2018-04-02T08:36:07.953Z,21.16
2018-04-02T08:37:08.003Z,21.16
2018-04-02T08:38:08.016Z,21.26
2018-04-02T08:39:08.345Z,21.18
2018-04-02T08:40:08.075Z,21.26
2018-04-02T08:41:08.118Z,21.21
2018-04-02T08:42:08.142Z,21.24
2018-04-02T08:43:08.184Z,21.33
2018-04-02T08:44:08.207Z,21.30
2018-04-02T08:45:08.279Z,21.34
2018-04-02T08:46:08.634Z,21.36
2018-04-02T08:47:08.306Z,21.26
2018-04-02T08:48:08.333Z,21.30
2018-04-02T08:49:08.394Z,21.31
2018-04-02T08:50:08.391Z,21.31
2018-04-02T08:51:08.416Z,21.36
2018-04-02T08:52:08.477Z,21.36
2018-04-02T08:53:08.807Z,21.38
2018-04-02T08:54:08.529Z,21.31
2018-04-02T08:55:08.542Z,21.34
2018-04-02T08:56:08.576Z,21.36
2018-04-02T08:57:08.605Z,21.37
2018-04-02T08:58:08.658Z,21.43
2018-04-02T08:59:08.664Z,21.40
2018-04-02T09:00:08.997Z,21.40
2018-04-02T09:01:08.731Z,21.37
2018-04-02T09:02:08.771Z,21.37
2018-04-02T09:03:08.788Z,21.38
2018-04-02T09:04:08.828Z,21.43
2018-04-02T09:05:08.901Z,21.45
2018-04-02T09:06:09.215Z,21.48
2018-04-02T09:07:08.973Z,21.45
2018-04-02T09:08:08.950Z,21.48
2018-04-02T09:09:08.986Z,21.48
2018-04-02T09:10:09.013Z,21.46
2018-04-02T09:11:09.075Z,21.43
2018-04-02T09:12:09.372Z,21.43
2018-04-02T09:13:09.168Z,21.49
2018-04-02T09:14:09.134Z,21.42
2018-04-02T09:15:09.164Z,21.58
2018-04-02T09:16:09.201Z,21.58
2018-04-02T09:17:09.226Z,21.55
2018-04-02T09:18:09.521Z,21.42
2018-04-02T09:19:09.393Z,21.52
2018-04-02T09:20:09.321Z,21.58
2018-04-02T09:21:09.356Z,21.56
2018-04-02T09:22:09.383Z,21.52
2018-04-02T09:23:09.413Z,21.59
2018-04-02T09:24:09.699Z,21.55
2018-04-02T09:25:09.479Z,21.58
2018-04-02T09:26:09.507Z,21.58
2018-04-02T09:27:09.557Z,21.63
2018-04-02T09:28:09.570Z,21.63
2018-04-02T09:29:09.606Z,21.61
2018-04-02T09:30:09.886Z,21.55
2018-04-02T09:31:09.679Z,21.64
2018-04-02T09:32:09.699Z,21.63
2018-04-02T09:33:09.734Z,21.67
2018-04-02T09:34:09.760Z,21.66
2018-04-02T09:35:09.793Z,21.68
2018-04-02T09:36:10.124Z,21.68
2018-04-02T09:37:09.857Z,21.70
2018-04-02T09:38:09.890Z,21.68
2018-04-02T09:39:09.919Z,21.68
2018-04-02T09:40:09.954Z,21.70
2018-04-02T09:41:09.997Z,21.75
2018-04-02T09:42:10.281Z,21.71
2018-04-02T09:43:10.093Z,21.71
2018-04-02T09:44:10.081Z,21.75
2018-04-02T09:45:10.168Z,21.73
2018-04-02T09:46:10.145Z,21.70
2018-04-02T09:47:10.172Z,21.83
2018-04-02T09:48:10.514Z,21.81
2018-04-02T09:49:10.232Z,21.86
2018-04-02T09:50:10.265Z,21.83
2018-04-02T09:51:10.300Z,21.83
2018-04-02T09:52:10.337Z,21.85
2018-04-02T09:53:10.359Z,21.81
2018-04-02T09:54:10.653Z,21.85
2018-04-02T09:55:10.421Z,21.86
2018-04-02T09:56:10.454Z,21.91
2018-04-02T09:57:10.494Z,21.94
2018-04-02T09:58:10.519Z,21.91
2018-04-02T09:59:10.585Z,21.89
2018-04-02T10:00:10.833Z,21.93
2018-04-02T10:01:10.616Z,21.90
2018-04-02T10:02:10.650Z,21.91
2018-04-02T10:03:10.731Z,21.90
2018-04-02T10:04:10.719Z,21.99
2018-04-02T10:05:10.820Z,21.99
2018-04-02T10:06:11.086Z,21.98
2018-04-02T10:07:10.813Z,22.04
2018-04-02T10:08:10.835Z,22.06
2018-04-02T10:09:10.882Z,22.01
2018-04-02T10:10:10.925Z,22.04
2018-04-02T10:11:10.944Z,22.04
2018-04-02T10:12:11.221Z,22.01
2018-04-02T10:13:10.998Z,22.06
2018-04-02T10:14:11.028Z,22.08
2018-04-02T10:15:11.068Z,22.06
2018-04-02T10:16:11.109Z,22.08
2018-04-02T10:17:11.128Z,22.08
2018-04-02T10:18:11.459Z,22.06
2018-04-02T10:19:11.189Z,22.09
2018-04-02T10:20:11.239Z,22.11
2018-04-02T10:21:11.257Z,22.09
2018-04-02T10:22:11.285Z,22.12
2018-04-02T10:23:11.316Z,22.19
2018-04-02T10:24:11.352Z,22.19
2018-04-02T10:25:11.686Z,22.15
2018-04-02T10:26:11.439Z,22.20
2018-04-02T10:27:11.446Z,22.23
2018-04-02T10:28:11.498Z,22.15
2018-04-02T10:29:11.515Z,22.19
2018-04-02T10:30:11.544Z,22.23
2018-04-02T10:31:11.581Z,22.27
2018-04-02T10:32:11.950Z,22.23
2018-04-02T10:33:11.640Z,22.24
2018-04-02T10:34:11.672Z,22.24
2018-04-02T10:35:11.707Z,22.26
2018-04-02T10:36:11.742Z,22.30
2018-04-02T10:37:11.781Z,22.31
2018-04-02T10:38:11.801Z,22.35
2018-04-02T10:39:12.089Z,22.29
2018-04-02T10:40:11.868Z,22.24
2018-04-02T10:41:11.900Z,22.31
2018-04-02T10:42:11.937Z,22.30
2018-04-02T10:43:11.962Z,22.29
2018-04-02T10:44:12.001Z,22.26
2018-04-02T10:45:12.079Z,22.33
2018-04-02T10:46:12.359Z,22.38
2018-04-02T10:47:12.092Z,22.36
2018-04-02T10:48:12.143Z,22.35
2018-04-02T10:49:12.166Z,22.30
2018-04-02T10:50:12.189Z,22.39
2018-04-02T10:51:12.239Z,22.45
2018-04-02T10:52:12.270Z,22.45
2018-04-02T10:53:12.610Z,22.41
2018-04-02T10:54:12.341Z,22.38
2018-04-02T10:55:12.351Z,22.41
2018-04-02T10:56:12.450Z,22.30
2018-04-02T10:57:12.431Z,22.39
2018-04-02T10:58:12.462Z,22.36
2018-04-02T10:59:12.488Z,22.39
2018-04-02T11:00:12.764Z,22.42
2018-04-02T11:01:12.554Z,22.46
2018-04-02T11:02:12.590Z,22.42
2018-04-02T11:03:12.614Z,22.39
2018-04-02T11:04:12.682Z,22.41
2018-04-02T11:05:12.684Z,22.41
2018-04-02T11:06:12.746Z,22.38
2018-04-02T11:07:13.054Z,22.48
2018-04-02T11:08:12.815Z,22.42
2018-04-02T11:09:12.840Z,22.46
2018-04-02T11:10:12.846Z,22.49
2018-04-02T11:11:12.888Z,22.45
2018-04-02T11:12:12.907Z,22.44
2018-04-02T11:13:12.938Z,22.51
2018-04-02T11:14:13.289Z,22.45
2018-04-02T11:15:13.021Z,22.48
2018-04-02T11:16:13.036Z,22.46
2018-04-02T11:17:13.072Z,22.48
2018-04-02T11:18:13.106Z,22.46
2018-04-02T11:19:13.133Z,22.51
2018-04-02T11:20:13.166Z,22.54
2018-04-02T11:21:13.200Z,22.56
2018-04-02T11:22:13.239Z,22.54
2018-04-02T11:23:13.284Z,22.57
2018-04-02T11:24:13.329Z,22.60
2018-04-02T11:25:13.347Z,22.63
2018-04-02T11:26:13.361Z,22.49
2018-04-02T11:27:13.650Z,22.63
2018-04-02T11:28:13.490Z,22.60
2018-04-02T11:29:13.467Z,22.60
2018-04-02T11:30:13.500Z,22.56
2018-04-02T11:31:13.526Z,22.63
2018-04-02T11:32:13.560Z,22.61
2018-04-02T11:33:13.597Z,22.64
2018-04-02T11:34:13.898Z,22.54
2018-04-02T11:35:13.699Z,22.66
2018-04-02T11:36:13.704Z,22.64
2018-04-02T11:37:13.722Z,22.63
2018-04-02T11:38:13.758Z,22.64
2018-04-02T11:39:13.796Z,22.64
2018-04-02T11:40:13.832Z,22.72
2018-04-02T11:41:14.182Z,22.64
2018-04-02T11:42:13.888Z,22.66
2018-04-02T11:43:13.959Z,22.70
2018-04-02T11:44:13.967Z,22.67
2018-04-02T11:45:13.986Z,22.70
2018-04-02T11:46:14.026Z,22.72
2018-04-02T11:47:14.405Z,22.75
2018-04-02T11:48:14.099Z,22.75
2018-04-02T11:49:14.122Z,22.67
2018-04-02T11:50:14.151Z,22.76
2018-04-02T11:51:14.214Z,22.75
2018-04-02T11:52:14.231Z,22.70
2018-04-02T11:53:14.659Z,22.70
2018-04-02T11:54:14.303Z,22.76
2018-04-02T11:55:14.316Z,22.76
2018-04-02T11:56:14.365Z,22.74
2018-04-02T11:57:14.416Z,22.72
2018-04-02T11:58:14.432Z,22.76
2018-04-02T11:59:14.712Z,22.67
2018-04-02T12:00:14.489Z,22.61
2018-04-02T12:01:14.542Z,22.63
2018-04-02T12:02:14.565Z,22.64
2018-04-02T12:03:14.589Z,22.70
2018-04-02T12:04:14.612Z,22.72
2018-04-02T12:05:14.893Z,22.67
2018-04-02T12:06:14.677Z,22.75
2018-04-02T12:07:14.710Z,22.69
2018-04-02T12:08:14.744Z,22.72
2018-04-02T12:09:14.780Z,22.59
2018-04-02T12:10:14.814Z,22.59
2018-04-02T12:11:15.146Z,22.67
2018-04-02T12:12:14.876Z,22.74
2018-04-02T12:13:14.922Z,22.79
2018-04-02T12:14:14.946Z,22.76
2018-04-02T12:15:14.998Z,22.66
2018-04-02T12:16:15.004Z,22.72
2018-04-02T12:17:15.291Z,22.67
2018-04-02T12:18:15.074Z,22.67
2018-04-02T12:19:15.116Z,22.66
2018-04-02T12:20:15.166Z,22.67
2018-04-02T12:21:15.192Z,22.72
2018-04-02T12:22:15.206Z,22.66
2018-04-02T12:23:15.485Z,22.57
2018-04-02T12:24:15.281Z,22.61
2018-04-02T12:25:15.313Z,22.60
2018-04-02T12:26:15.347Z,22.57
2018-04-02T12:27:15.377Z,22.64
2018-04-02T12:28:15.415Z,22.59
2018-04-02T12:29:15.707Z,22.60
2018-04-02T12:30:15.468Z,22.63
2018-04-02T12:31:15.514Z,22.59
2018-04-02T12:32:15.532Z,22.56
2018-04-02T12:33:15.568Z,22.63
2018-04-02T12:34:15.602Z,22.59
2018-04-02T12:35:15.933Z,22.59
2018-04-02T12:36:15.673Z,22.57
2018-04-02T12:37:15.697Z,22.51
2018-04-02T12:38:15.749Z,22.52
2018-04-02T12:39:15.765Z,22.56
2018-04-02T12:40:15.796Z,22.45
2018-04-02T12:41:16.217Z,22.49
2018-04-02T12:42:15.859Z,22.45
2018-04-02T12:43:15.947Z,22.48
2018-04-02T12:44:15.959Z,22.49
2018-04-02T12:45:15.959Z,22.49
2018-04-02T12:46:15.990Z,22.49
2018-04-02T12:47:16.323Z,22.44
2018-04-02T12:48:16.072Z,22.46
2018-04-02T12:49:16.099Z,22.51
2018-04-02T12:50:16.136Z,22.48
2018-04-02T12:51:16.215Z,22.57
2018-04-02T12:52:16.186Z,22.42
2018-04-02T12:53:16.468Z,22.48
2018-04-02T12:54:16.249Z,22.57